sensor_id;sensor_type;location;lat;lon;timestamp;temperature;humidity
66596;SHT31;59017;49.252;18.838;2022-11-14T00:00:36;21.38;53.17
66596;SHT31;59017;49.252;18.838;2022-11-14T00:03:03;21.35;53.33
66596;SHT31;59017;49.252;18.838;2022-11-14T00:05:29;21.39;53.15
66596;SHT31;59017;49.252;18.838;2022-11-14T00:07:54;21.37;52.98
66596;SHT31;59017;49.252;18.838;2022-11-14T00:10:20;21.35;53.08
66596;SHT31;59017;49.252;18.838;2022-11-14T00:12:45;21.34;53.46
66596;SHT31;59017;49.252;18.838;2022-11-14T00:15:11;21.35;53.15
66596;SHT31;59017;49.252;18.838;2022-11-14T00:17:36;21.35;53.32
66596;SHT31;59017;49.252;18.838;2022-11-14T00:20:02;21.37;52.94
66596;SHT31;59017;49.252;18.838;2022-11-14T00:22:27;21.37;53.74
66596;SHT31;59017;49.252;18.838;2022-11-14T00:24:52;21.37;53.16
66596;SHT31;59017;49.252;18.838;2022-11-14T00:27:18;21.35;53.35
66596;SHT31;59017;49.252;18.838;2022-11-14T00:29:43;21.38;53.34
66596;SHT31;59017;49.252;18.838;2022-11-14T00:32:08;21.37;53.42
66596;SHT31;59017;49.252;18.838;2022-11-14T00:34:34;21.37;53.82
66596;SHT31;59017;49.252;18.838;2022-11-14T00:36:59;21.37;53.42
66596;SHT31;59017;49.252;18.838;2022-11-14T00:39:24;21.37;53.68
66596;SHT31;59017;49.252;18.838;2022-11-14T00:41:51;21.37;53.38
66596;SHT31;59017;49.252;18.838;2022-11-14T00:44:16;21.34;53.47
66596;SHT31;59017;49.252;18.838;2022-11-14T00:46:42;21.31;52.99
66596;SHT31;59017;49.252;18.838;2022-11-14T00:49:07;21.34;53.90
66596;SHT31;59017;49.252;18.838;2022-11-14T00:51:32;21.35;53.81
66596;SHT31;59017;49.252;18.838;2022-11-14T00:53:57;21.34;53.03
66596;SHT31;59017;49.252;18.838;2022-11-14T00:56:23;21.34;53.60
66596;SHT31;59017;49.252;18.838;2022-11-14T00:58:48;21.34;53.84
66596;SHT31;59017;49.252;18.838;2022-11-14T01:01:13;21.35;53.71
66596;SHT31;59017;49.252;18.838;2022-11-14T01:03:39;21.31;53.61
66596;SHT31;59017;49.252;18.838;2022-11-14T01:06:05;21.34;53.28
66596;SHT31;59017;49.252;18.838;2022-11-14T01:08:31;21.35;54.05
66596;SHT31;59017;49.252;18.838;2022-11-14T01:10:56;21.38;53.94
66596;SHT31;59017;49.252;18.838;2022-11-14T01:13:22;21.38;53.69
66596;SHT31;59017;49.252;18.838;2022-11-14T01:15:48;21.35;53.93
66596;SHT31;59017;49.252;18.838;2022-11-14T01:18:19;21.35;54.19
66596;SHT31;59017;49.252;18.838;2022-11-14T01:20:45;21.37;54.01
66596;SHT31;59017;49.252;18.838;2022-11-14T01:23:11;21.37;54.53
66596;SHT31;59017;49.252;18.838;2022-11-14T01:25:38;21.38;54.34
66596;SHT31;59017;49.252;18.838;2022-11-14T01:28:10;21.39;54.38
66596;SHT31;59017;49.252;18.838;2022-11-14T01:30:36;21.39;54.11
66596;SHT31;59017;49.252;18.838;2022-11-14T01:33:02;21.39;54.49
66596;SHT31;59017;49.252;18.838;2022-11-14T01:35:29;21.42;54.60
66596;SHT31;59017;49.252;18.838;2022-11-14T01:37:54;21.39;54.27
66596;SHT31;59017;49.252;18.838;2022-11-14T01:40:19;21.42;54.30
66596;SHT31;59017;49.252;18.838;2022-11-14T01:48:44;21.44;54.27
66596;SHT31;59017;49.252;18.838;2022-11-14T01:53:45;21.44;54.17
66596;SHT31;59017;49.252;18.838;2022-11-14T01:56:13;21.45;54.33
66596;SHT31;59017;49.252;18.838;2022-11-14T01:58:40;21.42;54.33
66596;SHT31;59017;49.252;18.838;2022-11-14T02:01:06;21.44;53.84
66596;SHT31;59017;49.252;18.838;2022-11-14T02:03:32;21.45;54.52
66596;SHT31;59017;49.252;18.838;2022-11-14T02:06:00;21.41;54.14
66596;SHT31;59017;49.252;18.838;2022-11-14T02:08:25;21.42;54.88
66596;SHT31;59017;49.252;18.838;2022-11-14T02:10:50;21.41;54.01
66596;SHT31;59017;49.252;18.838;2022-11-14T02:13:16;21.38;54.12
66596;SHT31;59017;49.252;18.838;2022-11-14T02:15:41;21.42;54.45
66596;SHT31;59017;49.252;18.838;2022-11-14T02:18:06;21.38;54.30
66596;SHT31;59017;49.252;18.838;2022-11-14T02:20:33;21.41;54.71
66596;SHT31;59017;49.252;18.838;2022-11-14T02:22:59;21.42;54.67
66596;SHT31;59017;49.252;18.838;2022-11-14T02:25:24;21.42;54.27
66596;SHT31;59017;49.252;18.838;2022-11-14T02:27:50;21.39;54.78
66596;SHT31;59017;49.252;18.838;2022-11-14T02:30:17;21.44;53.95
66596;SHT31;59017;49.252;18.838;2022-11-14T02:32:42;21.42;54.64
66596;SHT31;59017;49.252;18.838;2022-11-14T02:35:08;21.44;54.31
66596;SHT31;59017;49.252;18.838;2022-11-14T02:37:33;21.44;54.91
66596;SHT31;59017;49.252;18.838;2022-11-14T02:39:59;21.44;54.53
66596;SHT31;59017;49.252;18.838;2022-11-14T02:42:24;21.41;54.32
66596;SHT31;59017;49.252;18.838;2022-11-14T02:44:49;21.44;55.23
66596;SHT31;59017;49.252;18.838;2022-11-14T02:47:14;21.41;54.75
66596;SHT31;59017;49.252;18.838;2022-11-14T02:49:40;21.46;55.05
66596;SHT31;59017;49.252;18.838;2022-11-14T02:52:05;21.45;54.98
66596;SHT31;59017;49.252;18.838;2022-11-14T02:54:30;21.45;54.63
66596;SHT31;59017;49.252;18.838;2022-11-14T02:56:56;21.44;54.41
66596;SHT31;59017;49.252;18.838;2022-11-14T02:59:21;21.46;54.65
66596;SHT31;59017;49.252;18.838;2022-11-14T03:01:46;21.44;54.56
66596;SHT31;59017;49.252;18.838;2022-11-14T03:04:12;21.42;54.30
66596;SHT31;59017;49.252;18.838;2022-11-14T03:06:37;21.42;54.78
66596;SHT31;59017;49.252;18.838;2022-11-14T03:09:02;21.44;54.33
66596;SHT31;59017;49.252;18.838;2022-11-14T03:11:28;21.44;54.81
66596;SHT31;59017;49.252;18.838;2022-11-14T03:13:53;21.41;54.89
66596;SHT31;59017;49.252;18.838;2022-11-14T03:16:18;21.41;54.69
66596;SHT31;59017;49.252;18.838;2022-11-14T03:18:44;21.39;54.64
66596;SHT31;59017;49.252;18.838;2022-11-14T03:21:10;21.39;54.80
66596;SHT31;59017;49.252;18.838;2022-11-14T03:23:36;21.39;54.85
66596;SHT31;59017;49.252;18.838;2022-11-14T03:26:02;21.39;54.65
66596;SHT31;59017;49.252;18.838;2022-11-14T03:28:28;21.38;54.43
66596;SHT31;59017;49.252;18.838;2022-11-14T03:30:53;21.38;54.37
66596;SHT31;59017;49.252;18.838;2022-11-14T03:33:19;21.38;55.20
66596;SHT31;59017;49.252;18.838;2022-11-14T03:35:44;21.39;54.88
66596;SHT31;59017;49.252;18.838;2022-11-14T03:38:10;21.37;54.71
66596;SHT31;59017;49.252;18.838;2022-11-14T03:40:38;21.38;55.03
66596;SHT31;59017;49.252;18.838;2022-11-14T03:43:04;21.38;55.12
66596;SHT31;59017;49.252;18.838;2022-11-14T03:45:29;21.37;54.96
66596;SHT31;59017;49.252;18.838;2022-11-14T03:47:55;21.39;54.80
66596;SHT31;59017;49.252;18.838;2022-11-14T03:50:20;21.39;54.26
66596;SHT31;59017;49.252;18.838;2022-11-14T03:52:47;21.37;54.20
66596;SHT31;59017;49.252;18.838;2022-11-14T03:55:12;21.34;54.48
66596;SHT31;59017;49.252;18.838;2022-11-14T03:57:38;21.32;53.57
66596;SHT31;59017;49.252;18.838;2022-11-14T04:00:03;21.35;54.76
66596;SHT31;59017;49.252;18.838;2022-11-14T04:02:29;21.34;54.20
66596;SHT31;59017;49.252;18.838;2022-11-14T04:04:54;21.39;54.34
66596;SHT31;59017;49.252;18.838;2022-11-14T04:07:19;21.39;54.71
66596;SHT31;59017;49.252;18.838;2022-11-14T04:09:44;21.41;53.53
66596;SHT31;59017;49.252;18.838;2022-11-14T04:12:11;21.42;53.66
66596;SHT31;59017;49.252;18.838;2022-11-14T04:14:36;21.42;53.39
66596;SHT31;59017;49.252;18.838;2022-11-14T04:17:01;21.45;54.01
66596;SHT31;59017;49.252;18.838;2022-11-14T04:19:27;21.48;53.87
66596;SHT31;59017;49.252;18.838;2022-11-14T04:21:52;21.52;53.42
66596;SHT31;59017;49.252;18.838;2022-11-14T04:24:17;21.52;53.62
66596;SHT31;59017;49.252;18.838;2022-11-14T04:26:43;21.51;53.02
66596;SHT31;59017;49.252;18.838;2022-11-14T04:29:08;21.48;53.27
66596;SHT31;59017;49.252;18.838;2022-11-14T04:31:33;21.45;53.30
66596;SHT31;59017;49.252;18.838;2022-11-14T04:33:59;21.46;53.04
66596;SHT31;59017;49.252;18.838;2022-11-14T04:36:24;21.46;53.36
66596;SHT31;59017;49.252;18.838;2022-11-14T04:38:49;21.44;53.46
66596;SHT31;59017;49.252;18.838;2022-11-14T04:41:15;21.49;54.20
66596;SHT31;59017;49.252;18.838;2022-11-14T04:43:40;21.46;53.40
66596;SHT31;59017;49.252;18.838;2022-11-14T04:46:05;21.48;53.26
66596;SHT31;59017;49.252;18.838;2022-11-14T04:48:31;21.48;53.36
66596;SHT31;59017;49.252;18.838;2022-11-14T04:50:56;21.49;54.21
66596;SHT31;59017;49.252;18.838;2022-11-14T04:53:21;21.51;54.45
66596;SHT31;59017;49.252;18.838;2022-11-14T04:55:46;21.51;53.26
66596;SHT31;59017;49.252;18.838;2022-11-14T04:58:12;21.51;53.39
66596;SHT31;59017;49.252;18.838;2022-11-14T05:00:37;21.52;53.49
66596;SHT31;59017;49.252;18.838;2022-11-14T05:03:02;21.52;54.13
66596;SHT31;59017;49.252;18.838;2022-11-14T05:05:28;21.52;53.76
66596;SHT31;59017;49.252;18.838;2022-11-14T05:07:53;21.51;53.98
66596;SHT31;59017;49.252;18.838;2022-11-14T05:10:19;21.52;54.41
66596;SHT31;59017;49.252;18.838;2022-11-14T05:12:44;21.56;53.50
66596;SHT31;59017;49.252;18.838;2022-11-14T05:15:09;21.56;53.25
66596;SHT31;59017;49.252;18.838;2022-11-14T05:17:35;21.54;52.94
66596;SHT31;59017;49.252;18.838;2022-11-14T05:20:00;21.58;53.76
66596;SHT31;59017;49.252;18.838;2022-11-14T05:22:26;21.59;53.01
66596;SHT31;59017;49.252;18.838;2022-11-14T05:24:51;21.59;54.13
66596;SHT31;59017;49.252;18.838;2022-11-14T05:27:16;21.62;53.23
66596;SHT31;59017;49.252;18.838;2022-11-14T05:29:41;21.66;53.51
66596;SHT31;59017;49.252;18.838;2022-11-14T05:32:07;21.62;53.39
66596;SHT31;59017;49.252;18.838;2022-11-14T05:34:32;21.61;52.75
66596;SHT31;59017;49.252;18.838;2022-11-14T05:36:57;21.59;53.14
66596;SHT31;59017;49.252;18.838;2022-11-14T05:39:23;21.52;52.61
66596;SHT31;59017;49.252;18.838;2022-11-14T05:41:48;21.52;53.35
66596;SHT31;59017;49.252;18.838;2022-11-14T05:44:13;21.49;53.83
66596;SHT31;59017;49.252;18.838;2022-11-14T05:46:39;21.45;53.30
66596;SHT31;59017;49.252;18.838;2022-11-14T05:49:04;21.44;52.16
66596;SHT31;59017;49.252;18.838;2022-11-14T05:51:29;21.41;53.27
66596;SHT31;59017;49.252;18.838;2022-11-14T05:53:55;21.38;52.64
66596;SHT31;59017;49.252;18.838;2022-11-14T05:56:20;21.39;53.08
66596;SHT31;59017;49.252;18.838;2022-11-14T05:58:45;21.39;52.73
66596;SHT31;59017;49.252;18.838;2022-11-14T06:01:15;21.35;52.45
66596;SHT31;59017;49.252;18.838;2022-11-14T06:03:41;21.35;53.41
66596;SHT31;59017;49.252;18.838;2022-11-14T06:06:08;21.35;53.49
66596;SHT31;59017;49.252;18.838;2022-11-14T06:08:34;21.41;53.42
66596;SHT31;59017;49.252;18.838;2022-11-14T06:11:07;21.37;52.94
66596;SHT31;59017;49.252;18.838;2022-11-14T06:13:32;21.37;53.44
66596;SHT31;59017;49.252;18.838;2022-11-14T06:15:59;21.37;52.93
66596;SHT31;59017;49.252;18.838;2022-11-14T06:18:25;21.42;54.42
66596;SHT31;59017;49.252;18.838;2022-11-14T06:20:50;21.39;55.39
66596;SHT31;59017;49.252;18.838;2022-11-14T06:23:15;21.10;42.79
66596;SHT31;59017;49.252;18.838;2022-11-14T06:25:40;20.93;43.48
66596;SHT31;59017;49.252;18.838;2022-11-14T06:28:06;20.76;41.04
66596;SHT31;59017;49.252;18.838;2022-11-14T06:30:31;20.84;50.62
66596;SHT31;59017;49.252;18.838;2022-11-14T06:32:56;21.04;48.32
66596;SHT31;59017;49.252;18.838;2022-11-14T06:35:23;21.15;47.99
66596;SHT31;59017;49.252;18.838;2022-11-14T06:37:48;21.32;49.22
66596;SHT31;59017;49.252;18.838;2022-11-14T06:40:13;21.42;49.33
66596;SHT31;59017;49.252;18.838;2022-11-14T06:42:39;21.45;47.66
66596;SHT31;59017;49.252;18.838;2022-11-14T06:45:04;21.54;47.05
66596;SHT31;59017;49.252;18.838;2022-11-14T06:47:29;21.59;47.09
66596;SHT31;59017;49.252;18.838;2022-11-14T06:49:55;21.65;46.89
66596;SHT31;59017;49.252;18.838;2022-11-14T06:52:20;21.71;47.08
66596;SHT31;59017;49.252;18.838;2022-11-14T06:54:46;21.78;46.59
66596;SHT31;59017;49.252;18.838;2022-11-14T06:57:11;21.83;47.14
66596;SHT31;59017;49.252;18.838;2022-11-14T06:59:36;21.88;47.43
66596;SHT31;59017;49.252;18.838;2022-11-14T07:02:02;21.92;46.97
66596;SHT31;59017;49.252;18.838;2022-11-14T07:04:27;21.94;47.52
66596;SHT31;59017;49.252;18.838;2022-11-14T07:06:52;21.97;47.80
66596;SHT31;59017;49.252;18.838;2022-11-14T07:09:18;22.03;47.48
66596;SHT31;59017;49.252;18.838;2022-11-14T07:11:43;22.04;48.09
66596;SHT31;59017;49.252;18.838;2022-11-14T07:14:10;22.07;48.39
66596;SHT31;59017;49.252;18.838;2022-11-14T07:16:36;22.10;48.28
66596;SHT31;59017;49.252;18.838;2022-11-14T07:19:04;22.13;48.31
66596;SHT31;59017;49.252;18.838;2022-11-14T07:21:32;22.18;48.58
66596;SHT31;59017;49.252;18.838;2022-11-14T07:23:57;22.16;48.62
66596;SHT31;59017;49.252;18.838;2022-11-14T07:26:23;22.20;48.69
66596;SHT31;59017;49.252;18.838;2022-11-14T07:28:48;22.21;48.81
66596;SHT31;59017;49.252;18.838;2022-11-14T07:31:14;22.23;48.69
66596;SHT31;59017;49.252;18.838;2022-11-14T07:33:40;22.18;48.89
66596;SHT31;59017;49.252;18.838;2022-11-14T07:36:06;22.21;48.97
66596;SHT31;59017;49.252;18.838;2022-11-14T07:38:32;22.21;49.07
66596;SHT31;59017;49.252;18.838;2022-11-14T07:41:00;22.25;48.95
66596;SHT31;59017;49.252;18.838;2022-11-14T07:43:26;22.24;48.68
66596;SHT31;59017;49.252;18.838;2022-11-14T07:45:52;22.25;48.97
66596;SHT31;59017;49.252;18.838;2022-11-14T07:48:17;22.25;49.14
66596;SHT31;59017;49.252;18.838;2022-11-14T07:50:43;22.30;49.06
66596;SHT31;59017;49.252;18.838;2022-11-14T07:53:08;22.27;49.18
66596;SHT31;59017;49.252;18.838;2022-11-14T07:55:34;22.25;49.38
66596;SHT31;59017;49.252;18.838;2022-11-14T07:57:59;22.25;49.27
66596;SHT31;59017;49.252;18.838;2022-11-14T08:00:25;22.30;49.27
66596;SHT31;59017;49.252;18.838;2022-11-14T08:02:50;22.31;49.20
66596;SHT31;59017;49.252;18.838;2022-11-14T08:05:16;22.29;49.69
66596;SHT31;59017;49.252;18.838;2022-11-14T08:07:41;22.27;49.13
66596;SHT31;59017;49.252;18.838;2022-11-14T08:10:07;22.30;48.98
66596;SHT31;59017;49.252;18.838;2022-11-14T08:12:32;22.30;49.48
66596;SHT31;59017;49.252;18.838;2022-11-14T08:14:57;22.27;49.24
66596;SHT31;59017;49.252;18.838;2022-11-14T08:17:23;22.30;49.21
66596;SHT31;59017;49.252;18.838;2022-11-14T08:19:48;22.30;49.27
66596;SHT31;59017;49.252;18.838;2022-11-14T08:22:13;22.30;49.08
66596;SHT31;59017;49.252;18.838;2022-11-14T08:24:38;22.29;48.67
66596;SHT31;59017;49.252;18.838;2022-11-14T08:27:04;22.33;49.29
66596;SHT31;59017;49.252;18.838;2022-11-14T08:29:29;22.34;49.46
66596;SHT31;59017;49.252;18.838;2022-11-14T08:31:54;22.33;48.63
66596;SHT31;59017;49.252;18.838;2022-11-14T08:34:20;22.31;49.28
66596;SHT31;59017;49.252;18.838;2022-11-14T08:36:46;22.30;48.68
66596;SHT31;59017;49.252;18.838;2022-11-14T08:39:11;22.31;49.25
66596;SHT31;59017;49.252;18.838;2022-11-14T08:41:37;22.30;48.82
66596;SHT31;59017;49.252;18.838;2022-11-14T08:44:02;22.33;49.29
66596;SHT31;59017;49.252;18.838;2022-11-14T08:46:27;22.31;49.11
66596;SHT31;59017;49.252;18.838;2022-11-14T08:48:53;22.31;49.28
66596;SHT31;59017;49.252;18.838;2022-11-14T08:51:18;22.31;49.12
66596;SHT31;59017;49.252;18.838;2022-11-14T08:53:43;22.31;49.45
66596;SHT31;59017;49.252;18.838;2022-11-14T08:56:09;22.29;49.55
66596;SHT31;59017;49.252;18.838;2022-11-14T08:58:35;22.29;49.18
66596;SHT31;59017;49.252;18.838;2022-11-14T09:01:01;22.33;49.05
66596;SHT31;59017;49.252;18.838;2022-11-14T09:03:26;22.29;49.04
66596;SHT31;59017;49.252;18.838;2022-11-14T09:05:52;22.27;49.30
66596;SHT31;59017;49.252;18.838;2022-11-14T09:08:18;22.24;49.38
66596;SHT31;59017;49.252;18.838;2022-11-14T09:10:43;22.29;49.49
66596;SHT31;59017;49.252;18.838;2022-11-14T09:13:09;22.29;50.09
66596;SHT31;59017;49.252;18.838;2022-11-14T09:15:34;22.31;50.24
66596;SHT31;59017;49.252;18.838;2022-11-14T09:17:59;22.30;50.14
66596;SHT31;59017;49.252;18.838;2022-11-14T09:20:25;22.31;50.32
66596;SHT31;59017;49.252;18.838;2022-11-14T09:22:50;22.33;50.53
66596;SHT31;59017;49.252;18.838;2022-11-14T09:25:18;22.37;50.63
66596;SHT31;59017;49.252;18.838;2022-11-14T09:27:43;22.37;50.92
66596;SHT31;59017;49.252;18.838;2022-11-14T09:30:09;22.36;50.85
66596;SHT31;59017;49.252;18.838;2022-11-14T09:32:34;22.40;50.48
66596;SHT31;59017;49.252;18.838;2022-11-14T09:35:00;22.43;50.95
66596;SHT31;59017;49.252;18.838;2022-11-14T09:37:25;22.43;50.70
66596;SHT31;59017;49.252;18.838;2022-11-14T09:39:50;22.43;50.47
66596;SHT31;59017;49.252;18.838;2022-11-14T09:45:01;22.50;50.92
66596;SHT31;59017;49.252;18.838;2022-11-14T09:47:31;22.52;50.81
66596;SHT31;59017;49.252;18.838;2022-11-14T09:50:06;22.57;50.56
66596;SHT31;59017;49.252;18.838;2022-11-14T09:55:27;22.57;50.94
66596;SHT31;59017;49.252;18.838;2022-11-14T09:57:53;22.61;50.94
66596;SHT31;59017;49.252;18.838;2022-11-14T10:00:20;22.64;50.82
66596;SHT31;59017;49.252;18.838;2022-11-14T10:02:54;22.68;50.77
66596;SHT31;59017;49.252;18.838;2022-11-14T10:15:53;22.69;50.60
66596;SHT31;59017;49.252;18.838;2022-11-14T10:18:17;22.72;50.59
66596;SHT31;59017;49.252;18.838;2022-11-14T10:20:47;22.72;50.63
66596;SHT31;59017;49.252;18.838;2022-11-14T10:23:37;22.75;50.54
66596;SHT31;59017;49.252;18.838;2022-11-14T10:28:36;22.78;50.58
66596;SHT31;59017;49.252;18.838;2022-11-14T10:39:20;22.81;50.80
66596;SHT31;59017;49.252;18.838;2022-11-14T10:41:46;22.85;50.80
66596;SHT31;59017;49.252;18.838;2022-11-14T10:44:14;22.84;50.36
66596;SHT31;59017;49.252;18.838;2022-11-14T10:46:46;22.89;50.79
66596;SHT31;59017;49.252;18.838;2022-11-14T10:49:31;22.86;50.65
66596;SHT31;59017;49.252;18.838;2022-11-14T10:52:03;22.92;50.66
66596;SHT31;59017;49.252;18.838;2022-11-14T10:56:54;22.95;50.67
66596;SHT31;59017;49.252;18.838;2022-11-14T10:59:20;22.96;50.64
66596;SHT31;59017;49.252;18.838;2022-11-14T11:07:36;22.96;50.68
66596;SHT31;59017;49.252;18.838;2022-11-14T11:10:00;22.96;50.47
66596;SHT31;59017;49.252;18.838;2022-11-14T11:12:51;22.96;50.43
66596;SHT31;59017;49.252;18.838;2022-11-14T11:15:17;22.98;50.23
66596;SHT31;59017;49.252;18.838;2022-11-14T11:18:00;22.96;50.35
66596;SHT31;59017;49.252;18.838;2022-11-14T11:20:32;22.98;49.87
66596;SHT31;59017;49.252;18.838;2022-11-14T11:23:05;22.96;50.59
66596;SHT31;59017;49.252;18.838;2022-11-14T11:25:32;22.99;50.93
66596;SHT31;59017;49.252;18.838;2022-11-14T11:30:35;23.00;50.93
66596;SHT31;59017;49.252;18.838;2022-11-14T11:33:13;23.05;50.94
66596;SHT31;59017;49.252;18.838;2022-11-14T11:35:39;23.05;50.64
66596;SHT31;59017;49.252;18.838;2022-11-14T11:38:06;23.05;50.90
66596;SHT31;59017;49.252;18.838;2022-11-14T11:40:35;23.09;50.97
66596;SHT31;59017;49.252;18.838;2022-11-14T11:43:01;23.12;50.88
66596;SHT31;59017;49.252;18.838;2022-11-14T11:45:28;23.10;51.11
66596;SHT31;59017;49.252;18.838;2022-11-14T11:47:58;23.13;50.98
66596;SHT31;59017;49.252;18.838;2022-11-14T11:50:25;23.13;50.78
66596;SHT31;59017;49.252;18.838;2022-11-14T11:52:53;23.12;50.99
66596;SHT31;59017;49.252;18.838;2022-11-14T11:55:20;23.16;51.15
66596;SHT31;59017;49.252;18.838;2022-11-14T12:00:26;23.16;50.84
66596;SHT31;59017;49.252;18.838;2022-11-14T12:02:52;23.17;51.05
66596;SHT31;59017;49.252;18.838;2022-11-14T12:07:56;23.20;51.06
66596;SHT31;59017;49.252;18.838;2022-11-14T12:10:26;23.17;50.83
66596;SHT31;59017;49.252;18.838;2022-11-14T12:17:59;23.22;50.80
66596;SHT31;59017;49.252;18.838;2022-11-14T12:20:35;23.23;50.90
66596;SHT31;59017;49.252;18.838;2022-11-14T12:26:10;23.20;50.91
66596;SHT31;59017;49.252;18.838;2022-11-14T12:31:23;23.17;50.78
66596;SHT31;59017;49.252;18.838;2022-11-14T12:34:00;23.20;50.41
66596;SHT31;59017;49.252;18.838;2022-11-14T12:36:27;23.13;50.37
66596;SHT31;59017;49.252;18.838;2022-11-14T12:38:54;23.13;50.43
66596;SHT31;59017;49.252;18.838;2022-11-14T12:41:23;23.10;50.30
66596;SHT31;59017;49.252;18.838;2022-11-14T12:43:49;23.10;50.23
66596;SHT31;59017;49.252;18.838;2022-11-14T12:46:14;23.07;50.00
66596;SHT31;59017;49.252;18.838;2022-11-14T12:48:43;23.07;49.94
66596;SHT31;59017;49.252;18.838;2022-11-14T12:53:49;23.05;50.13
66596;SHT31;59017;49.252;18.838;2022-11-14T12:56:20;23.05;50.28
66596;SHT31;59017;49.252;18.838;2022-11-14T13:01:25;23.02;50.09
66596;SHT31;59017;49.252;18.838;2022-11-14T13:03:59;23.00;50.22
66596;SHT31;59017;49.252;18.838;2022-11-14T13:06:46;23.03;50.07
66596;SHT31;59017;49.252;18.838;2022-11-14T13:11:49;23.03;50.29
66596;SHT31;59017;49.252;18.838;2022-11-14T13:17:33;23.05;50.46
66596;SHT31;59017;49.252;18.838;2022-11-14T13:20:35;23.03;50.63
66596;SHT31;59017;49.252;18.838;2022-11-14T13:25:47;23.07;50.82
66596;SHT31;59017;49.252;18.838;2022-11-14T13:31:20;23.15;51.02
66596;SHT31;59017;49.252;18.838;2022-11-14T13:33:47;23.13;51.03
66596;SHT31;59017;49.252;18.838;2022-11-14T13:41:35;23.15;50.70
66596;SHT31;59017;49.252;18.838;2022-11-14T13:51:49;23.17;51.12
66596;SHT31;59017;49.252;18.838;2022-11-14T13:54:15;23.17;51.05
66596;SHT31;59017;49.252;18.838;2022-11-14T14:09:58;23.17;51.16
66596;SHT31;59017;49.252;18.838;2022-11-14T14:17:41;23.17;51.29
66596;SHT31;59017;49.252;18.838;2022-11-14T14:20:32;23.17;51.37
66596;SHT31;59017;49.252;18.838;2022-11-14T14:30:21;23.16;50.94
66596;SHT31;59017;49.252;18.838;2022-11-14T14:33:03;23.15;51.22
66596;SHT31;59017;49.252;18.838;2022-11-14T14:35:34;23.12;51.18
66596;SHT31;59017;49.252;18.838;2022-11-14T14:38:00;23.13;51.37
66596;SHT31;59017;49.252;18.838;2022-11-14T14:42:54;23.06;51.38
66596;SHT31;59017;49.252;18.838;2022-11-14T14:45:21;23.06;51.19
66596;SHT31;59017;49.252;18.838;2022-11-14T14:47:57;23.05;51.36
66596;SHT31;59017;49.252;18.838;2022-11-14T14:50:25;23.02;51.41
66596;SHT31;59017;49.252;18.838;2022-11-14T14:52:58;22.96;51.11
66596;SHT31;59017;49.252;18.838;2022-11-14T14:55:28;22.96;51.15
66596;SHT31;59017;49.252;18.838;2022-11-14T14:57:54;22.89;50.91
66596;SHT31;59017;49.252;18.838;2022-11-14T15:00:23;22.89;50.97
66596;SHT31;59017;49.252;18.838;2022-11-14T15:02:54;22.85;50.83
66596;SHT31;59017;49.252;18.838;2022-11-14T15:05:23;22.84;50.48
66596;SHT31;59017;49.252;18.838;2022-11-14T15:07:49;22.84;50.79
66596;SHT31;59017;49.252;18.838;2022-11-14T15:10:21;22.79;50.76
66596;SHT31;59017;49.252;18.838;2022-11-14T15:12:48;22.81;50.69
66596;SHT31;59017;49.252;18.838;2022-11-14T15:15:14;22.78;50.56
66596;SHT31;59017;49.252;18.838;2022-11-14T15:17:40;22.78;50.69
66596;SHT31;59017;49.252;18.838;2022-11-14T15:20:16;22.73;50.54
66596;SHT31;59017;49.252;18.838;2022-11-14T15:23:00;22.71;50.59
66596;SHT31;59017;49.252;18.838;2022-11-14T15:25:26;22.71;50.66
66596;SHT31;59017;49.252;18.838;2022-11-14T15:27:54;22.67;50.46
66596;SHT31;59017;49.252;18.838;2022-11-14T15:30:27;22.65;50.63
66596;SHT31;59017;49.252;18.838;2022-11-14T15:32:59;22.65;50.31
66596;SHT31;59017;49.252;18.838;2022-11-14T15:35:26;22.58;50.39
66596;SHT31;59017;49.252;18.838;2022-11-14T15:40:38;22.54;50.74
66596;SHT31;59017;49.252;18.838;2022-11-14T15:45:47;22.57;50.84
66596;SHT31;59017;49.252;18.838;2022-11-14T15:48:13;22.57;50.60
66596;SHT31;59017;49.252;18.838;2022-11-14T15:50:40;22.55;50.82
66596;SHT31;59017;49.252;18.838;2022-11-14T15:53:13;22.55;50.70
66596;SHT31;59017;49.252;18.838;2022-11-14T15:55:40;22.52;50.68
66596;SHT31;59017;49.252;18.838;2022-11-14T15:58:09;22.51;50.73
66596;SHT31;59017;49.252;18.838;2022-11-14T16:00:35;22.50;50.86
66596;SHT31;59017;49.252;18.838;2022-11-14T16:03:01;22.48;50.78
66596;SHT31;59017;49.252;18.838;2022-11-14T16:05:27;22.50;50.86
66596;SHT31;59017;49.252;18.838;2022-11-14T16:07:53;22.48;50.92
66596;SHT31;59017;49.252;18.838;2022-11-14T16:10:20;22.44;51.13
66596;SHT31;59017;49.252;18.838;2022-11-14T16:12:45;22.45;50.92
66596;SHT31;59017;49.252;18.838;2022-11-14T16:15:11;22.44;50.77
66596;SHT31;59017;49.252;18.838;2022-11-14T16:17:37;22.43;51.09
66596;SHT31;59017;49.252;18.838;2022-11-14T16:20:06;22.41;51.00
66596;SHT31;59017;49.252;18.838;2022-11-14T16:22:32;22.41;51.04
66596;SHT31;59017;49.252;18.838;2022-11-14T16:24:58;22.41;51.14
66596;SHT31;59017;49.252;18.838;2022-11-14T16:27:23;22.41;50.94
66596;SHT31;59017;49.252;18.838;2022-11-14T16:29:48;22.39;51.04
66596;SHT31;59017;49.252;18.838;2022-11-14T16:32:14;22.39;51.20
66596;SHT31;59017;49.252;18.838;2022-11-14T16:34:39;22.39;51.19
66596;SHT31;59017;49.252;18.838;2022-11-14T16:37:04;22.37;51.52
66596;SHT31;59017;49.252;18.838;2022-11-14T16:39:30;22.37;51.25
66596;SHT31;59017;49.252;18.838;2022-11-14T16:41:59;22.39;51.40
66596;SHT31;59017;49.252;18.838;2022-11-14T16:44:25;22.37;51.21
66596;SHT31;59017;49.252;18.838;2022-11-14T16:46:51;22.33;51.48
66596;SHT31;59017;49.252;18.838;2022-11-14T16:49:16;22.33;51.41
66596;SHT31;59017;49.252;18.838;2022-11-14T16:51:42;22.31;50.98
66596;SHT31;59017;49.252;18.838;2022-11-14T16:54:10;22.33;50.88
66596;SHT31;59017;49.252;18.838;2022-11-14T16:56:36;22.29;51.15
66596;SHT31;59017;49.252;18.838;2022-11-14T16:59:01;22.30;51.00
66596;SHT31;59017;49.252;18.838;2022-11-14T17:01:27;22.27;50.91
66596;SHT31;59017;49.252;18.838;2022-11-14T17:03:52;22.25;50.81
66596;SHT31;59017;49.252;18.838;2022-11-14T17:06:18;22.25;50.85
66596;SHT31;59017;49.252;18.838;2022-11-14T17:08:43;22.23;51.15
66596;SHT31;59017;49.252;18.838;2022-11-14T17:11:08;22.21;50.80
66596;SHT31;59017;49.252;18.838;2022-11-14T17:13:35;22.21;51.12
66596;SHT31;59017;49.252;18.838;2022-11-14T17:16:01;22.20;51.06
66596;SHT31;59017;49.252;18.838;2022-11-14T17:18:26;22.17;51.11